Have a Safe July 4th! 

Flight Track Log - Related Links

Times and Time Zones

All times are in EDT time to prevent confusion due to time zone crossing. See the N953QS flight status page for this flight to view local times or setup timezone preferences in your user account.

Time Position Orientation Groundspeed Altitude Reporting Facility
EDT Latitude Longitude Course Direction KTS MPH feet Rate Location/Type
Thu 07:25:14 AM 41.3219 -95.9142 10° North 158 182 2,300  Level Minneapolis Center
Thu 07:25:56 AM 41.3617 -95.9047 11° North 265 305 4,300 2,706 Climbing Minneapolis Center
Thu 07:26:56 AM 41.4286 -95.8881 75° East 265 305 6,900 2,700 Climbing Minneapolis Center
Thu 07:27:56 AM 41.4472 -95.7919 117° Southeast 217 250 9,700 2,250 Climbing Minneapolis Center
Thu 07:28:56 AM 41.4019 -95.6742 102° East 261 300 11,400 1,600 Climbing Minneapolis Center
Thu 07:29:56 AM 41.3797 -95.5353 87° East 297 342 12,900 1,450 Climbing Minneapolis Center
Thu 07:30:56 AM 41.3842 -95.4083 88° East 357 411 14,300 1,500 Climbing Minneapolis Center
Thu 07:31:56 AM 41.3889 -95.2536 87° East 386 444 15,900 1,700 Climbing Minneapolis Center
Thu 07:32:56 AM 41.3956 -95.0964 87° East 408 470 17,700 1,700 Climbing Minneapolis Center
Thu 07:33:56 AM 41.4019 -94.9364 87° East 426 490 19,300 1,600 Climbing Minneapolis Center
Thu 07:34:56 AM 41.4083 -94.7733 88° East 431 496 20,900 1,650 Climbing Minneapolis Center
Thu 07:35:56 AM 41.4122 -94.6050 87° East 444 511 22,600 1,700 Climbing Minneapolis Center
Thu 07:36:56 AM 41.4183 -94.4281 88° East 454 522 24,300 1,600 Climbing Minneapolis Center
Thu 07:37:56 AM 41.4239 -94.2458 88° East 474 545 25,800 1,701 Climbing Minneapolis Center
Thu 07:40:03 AM 41.4344 -93.8539 89° East 505 581 29,600 1,765 Climbing Chicago Center
Thu 07:41:03 AM 41.4378 -93.6603 86° East 512 589 31,300 1,900 Climbing Chicago Center
Thu 07:42:03 AM 41.4469 -93.4642 86° East 524 603 33,400 2,250 Climbing Chicago Center
Thu 07:43:03 AM 41.4561 -93.2678 86° East 524 603 35,800 2,050 Climbing Chicago Center
Thu 07:44:03 AM 41.4669 -93.0689 87° East 524 603 37,500 1,700 Climbing Chicago Center
Thu 07:45:03 AM 41.4750 -92.8781 89° East 524 603 39,200 1,500 Climbing Chicago Center
Thu 07:46:03 AM 41.4767 -92.6842 93° East 524 603 40,500 900 Climbing Chicago Center
Thu 07:47:03 AM 41.4694 -92.4897 92° East 518 596 41,000 250 Climbing Chicago Center
Thu 07:48:03 AM 41.4644 -92.2844 93° East 536 617 41,000  Level Chicago Center
Thu 07:49:03 AM 41.4572 -92.0792 92° East 550 633 41,000  Level Chicago Center
Thu 07:50:03 AM 41.4514 -91.8711 91° East 556 640 41,000  Level Chicago Center
Thu 07:51:03 AM 41.4475 -91.6631 92° East 556 640 41,000  Level Chicago Center
Thu 07:52:03 AM 41.4411 -91.4550 93° East 556 640 41,000  Level Chicago Center
Thu 07:53:03 AM 41.4342 -91.2528 93° East 556 640 41,000  Level Chicago Center
Thu 07:54:03 AM 41.4269 -91.0447 93° East 556 640 41,000  Level Chicago Center
Thu 07:55:03 AM 41.4194 -90.8342 94° East 556 640 41,000  Level Chicago Center
Thu 07:56:03 AM 41.4094 -90.6289 93° East 561 646 41,000  Level Chicago Center
Thu 07:57:03 AM 41.4014 -90.4156 93° East 561 646 41,000  Level Chicago Center
Thu 07:58:03 AM 41.3925 -90.2081 94° East 561 646 41,000  Level Chicago Center
Thu 07:59:03 AM 41.3817 -89.9808 93° East 556 640 41,000  Level Chicago Center
Thu 08:00:03 AM 41.3722 -89.7733 94° East 556 640 41,000  Level Chicago Center
Thu 08:01:03 AM 41.3622 -89.5656 94° East 556 640 41,000  Level Chicago Center
Thu 08:02:03 AM 41.3519 -89.3608 95° East 561 646 41,000  Level Chicago Center
Thu 08:03:03 AM 41.3394 -89.1619 94° East 553 636 41,000  Level Chicago Center
Thu 08:04:03 AM 41.3283 -88.9517 94° East 553 636 41,000  Level Chicago Center
Thu 08:05:03 AM 41.3169 -88.7472 94° East 558 642 41,000  Level Chicago Center
Thu 08:06:03 AM 41.3053 -88.5400 95° East 558 642 41,000  Level Chicago Center
Thu 08:07:03 AM 41.2911 -88.3386 96° East 558 642 41,000  Level Chicago Center
Thu 08:08:03 AM 41.2747 -88.1369 94° East 558 642 41,000  Level Chicago Center
Thu 08:09:03 AM 41.2642 -87.9411 93° East 565 650 41,000  Level Chicago Center
Thu 08:10:03 AM 41.2553 -87.7397 95° East 565 650 41,000  Level Chicago Center
Thu 08:11:03 AM 41.2417 -87.5356 95° East 559 643 41,000  Level Chicago Center
Thu 08:12:03 AM 41.2278 -87.3317 95° East 554 638 41,000  Level Chicago Center
Thu 08:13:03 AM 41.2136 -87.1222 95° East 559 643 41,000  Level Chicago Center
Thu 08:14:04 AM 41.1989 -86.9186 96° East 559 643 41,000  Level Chicago Center
Thu 08:15:03 AM 41.1839 -86.7150 95° East 559 643 41,000  Level Chicago Center
Thu 08:16:03 AM 41.1706 -86.5058 98° East 559 643 41,000  Level Chicago Center
Thu 08:17:03 AM 41.1511 -86.3136 95° East 549 632 41,000  Level Chicago Center
Thu 08:18:03 AM 41.1369 -86.0992 96° East 561 646 41,000  Level Chicago Center
Thu 08:19:03 AM 41.1203 -85.8933 96° East 561 646 41,000  Level Chicago Center
Thu 08:20:03 AM 41.1033 -85.6847 97° East 565 650 41,000  Level Chicago Center
Thu 08:21:03 AM 41.0836 -85.4625 96° East 565 650 41,000  Level Chicago Center
Thu 08:23:04 AM 41.0472 -85.0467 96° East 539 620 41,000  Level Cleveland Center
Thu 08:24:04 AM 41.0303 -84.8364 97° East 558 642 41,000  Level Cleveland Center
Thu 08:25:04 AM 41.0106 -84.6314 97° East 568 654 41,000  Level Cleveland Center
Thu 08:26:04 AM 40.9906 -84.4264 97° East 562 647 41,000  Level Cleveland Center
Thu 08:27:04 AM 40.9736 -84.2411 98° East 567 652 41,000  Level Cleveland Center
Thu 08:28:04 AM 40.9528 -84.0364 98° East 563 648 41,000  Level Cleveland Center
Thu 08:29:04 AM 40.9319 -83.8292 97° East 568 654 41,000  Level Cleveland Center
Thu 08:30:04 AM 40.9125 -83.6222 98° East 568 654 41,000  Level Cleveland Center
Thu 08:31:04 AM 40.8908 -83.4150 98° East 568 654 41,000  Level Cleveland Center
Thu 08:32:04 AM 40.8686 -83.2081 99° East 563 648 41,000  Level Cleveland Center
Thu 08:33:04 AM 40.8439 -83.0067 98° East 563 648 41,000  Level Cleveland Center
Thu 08:34:04 AM 40.8211 -82.7972 99° East 563 648 41,000  Level Cleveland Center
Thu 08:35:04 AM 40.7978 -82.5964 97° East 557 641 41,000  Level Cleveland Center
Thu 08:36:04 AM 40.7783 -82.3928 99° East 557 641 41,000  Level Cleveland Center
Thu 08:37:04 AM 40.7542 -82.1894 99° East 563 648 41,000  Level Cleveland Center
Thu 08:38:04 AM 40.7297 -81.9858 100° East 554 638 41,000  Level Cleveland Center
Thu 08:39:04 AM 40.7028 -81.7828 98° East 565 650 41,000  Level Cleveland Center
Thu 08:40:04 AM 40.6800 -81.5742 99° East 565 650 41,000  Level Cleveland Center
Thu 08:41:04 AM 40.6564 -81.3686 100° East 570 656 41,000  Level Cleveland Center
Thu 08:42:04 AM 40.6286 -81.1631 98° East 563 648 41,000  Level Cleveland Center
Thu 08:43:04 AM 40.6044 -80.9331 100° East 568 654 41,000  Level Cleveland Center
Thu 08:44:04 AM 40.5778 -80.7253 100° East 573 659 41,000  Level Cleveland Center
Thu 08:45:04 AM 40.5508 -80.5175 100° East 573 659 41,000  Level Cleveland Center
Thu 08:46:04 AM 40.5256 -80.3344 100° East 573 659 41,000  Level Cleveland Center
Thu 08:47:04 AM 40.4978 -80.1272 94° East 578 665 41,000 -450 Level Cleveland Center
Thu 08:48:04 AM 40.4864 -79.9117 94° East 584 672 40,100 -1,200 Descending Cleveland Center
Thu 08:49:04 AM 40.4767 -79.7125 91° East 576 663 38,600 -1,500 Descending Cleveland Center
Thu 08:50:04 AM 40.4728 -79.4942 88° East 576 663 37,100 -1,500 Descending Cleveland Center
Thu 08:51:04 AM 40.4786 -79.2783 86° East 581 669 35,600 -1,400 Descending Cleveland Center
Thu 08:52:04 AM 40.4908 -79.0678 89° East 581 669 34,300 -1,150 Descending Cleveland Center
Thu 08:53:04 AM 40.4939 -78.8575 97° East 581 669 33,300 -650 Descending Cleveland Center
Thu 08:54:04 AM 40.4714 -78.6261 98° East 574 661 33,000 -1,100 Descending Cleveland Center
Thu 08:55:04 AM 40.4492 -78.4222 98° East 579 666 31,100 -2,750 Descending Cleveland Center
Thu 08:56:28 AM 40.4194 -78.1378 98° East 565 650 26,400 -2,855 Descending New York Center
Thu 08:57:29 AM 40.3981 -77.9419 97° East 549 632 24,200 -1,426 Descending New York Center
Thu 08:58:30 AM 40.3800 -77.7547 98° East 538 619 23,500 -1,261 Descending New York Center
Thu 08:59:28 AM 40.3614 -77.5731 99° East 516 594 21,700 -1,729 Descending New York Center
Thu 09:00:28 AM 40.3386 -77.3883 105° East 510 587 20,100 -893 Descending New York Center
Thu 09:01:29 AM 40.3025 -77.2133 105° East 499 574 19,900 -836 Descending New York Center
Thu 09:02:30 AM 40.2728 -77.0664 102° East 481 554 18,400 -1,550 Descending New York Center
Thu 09:03:29 AM 40.2447 -76.8897 100° East 481 554 16,800 -1,500 Descending New York Center
Thu 09:04:30 AM 40.2217 -76.7272 101° East 469 540 15,400 -1,475 Descending New York Center
Thu 09:05:31 AM 40.1969 -76.5539 100° East 447 514 13,800 -1,525 Descending New York Center
Thu 09:06:28 AM 40.1753 -76.3944 102° East 441 507 12,400 -1,468 Descending New York Center
Thu 09:07:05 AM 40.1606 -76.3003 101° East 435 501 11,500 -1,091 Descending FAA TRACON SMA TRACON (SMA)
Thu 09:07:45 AM 40.1458 -76.2003 98° East 385 443 11,000 -450 Descending FAA TRACON SMA TRACON (SMA)
Thu 09:08:25 AM 40.1372 -76.1208 100° East 348 400 10,900 -525 Descending FAA TRACON SMA TRACON (SMA)
Thu 09:09:05 AM 40.1275 -76.0475 106° East 313 360 10,300 -1,037 Descending FAA TRACON SMA TRACON (SMA)
Thu 09:09:46 AM 40.1108 -75.9694 151° Southeast 293 337 9,500 -1,333 Descending FAA TRACON SMA TRACON (SMA)
Thu 09:10:26 AM 40.0697 -75.9403 172° South 278 320 8,500 -1,650 Descending FAA TRACON SMA TRACON (SMA)
Thu 09:11:06 AM 40.0175 -75.9311 172° South 271 312 7,300 -1,725 Descending FAA TRACON SMA TRACON (SMA)
Thu 09:11:46 AM 39.9678 -75.9217 172° South 263 303 6,200 -1,630 Descending FAA TRACON SMA TRACON (SMA)
Thu 09:12:27 AM 39.9206 -75.9133 172° South 246 283 5,100 -1,556 Descending FAA TRACON SMA TRACON (SMA)
Thu 09:13:07 AM 39.8806 -75.9056 172° South 238 274 4,100 -1,500 Descending FAA TRACON SMA TRACON (SMA)
Thu 09:13:47 AM 39.8372 -75.8972 172° South 230 265 3,100 -987 Descending FAA TRACON SMA TRACON (SMA)
Thu 09:14:26 AM 39.8006 -75.8903 172° South 218 251 2,800 -684 Descending FAA TRACON SMA TRACON (SMA)
Thu 09:15:06 AM 39.7608 -75.8828 172° South 210 242 2,200 -450 Descending FAA TRACON SMA TRACON (SMA)
Thu 09:15:46 AM 39.7264 -75.8764 168° South 172 198 2,200  Level FAA TRACON SMA TRACON (SMA)
Thu 09:16:46 AM 39.6794 -75.8636 160° South 170 196 2,200 -58 Level FAA TRACON SMA TRACON (SMA)
Thu 09:17:29 AM 39.6503 -75.8500 95° East 167 192 2,100  Descending FAA TRACON SMA TRACON (SMA)
Thu 09:18:06 AM 39.6478 -75.8097 79° East 200 230 2,200 78 Climbing FAA TRACON SMA TRACON (SMA)
Thu 09:18:46 AM 39.6558 -75.7572 78° East 209 241 2,200 -375 Level FAA TRACON SMA TRACON (SMA)
Thu 09:19:26 AM 39.6625 -75.7169 80° East 155 178 1,700 -750 Descending FAA TRACON SMA TRACON (SMA)
Thu 09:20:06 AM 39.6669 -75.6833 78° East 143 165 1,200 -815 Descending FAA TRACON SMA TRACON (SMA)
Thu 09:20:47 AM 39.6719 -75.6519 81° East 130 150 600 -732 Descending FAA TRACON SMA TRACON (SMA)
Thu 09:21:28 AM 39.6753 -75.6256 81° East 183 211 200 -585 Descending FAA TRACON SMA TRACON (SMA)

Login

Don't have an account? Register now (free) for customized features, flight alerts, and more!